sensor_id;sensor_type;location;lat;lon;timestamp;temperature;humidity
23629;DHT22;11991;57.150;-2.134;2023-07-09T00:02:10;17.50;99.90
23629;DHT22;11991;57.150;-2.134;2023-07-09T00:04:38;17.50;99.90
23629;DHT22;11991;57.150;-2.134;2023-07-09T00:07:08;17.50;99.90
23629;DHT22;11991;57.150;-2.134;2023-07-09T00:09:38;17.50;99.90
23629;DHT22;11991;57.150;-2.134;2023-07-09T00:12:17;17.50;99.90
23629;DHT22;11991;57.150;-2.134;2023-07-09T00:14:45;17.50;99.90
23629;DHT22;11991;57.150;-2.134;2023-07-09T00:17:23;17.50;99.90
23629;DHT22;11991;57.150;-2.134;2023-07-09T00:19:52;17.50;99.90
23629;DHT22;11991;57.150;-2.134;2023-07-09T00:22:21;17.40;99.90
23629;DHT22;11991;57.150;-2.134;2023-07-09T00:24:51;17.40;99.90
23629;DHT22;11991;57.150;-2.134;2023-07-09T00:27:20;17.40;99.90
23629;DHT22;11991;57.150;-2.134;2023-07-09T00:29:48;17.40;99.90
23629;DHT22;11991;57.150;-2.134;2023-07-09T00:32:18;17.40;99.90
23629;DHT22;11991;57.150;-2.134;2023-07-09T00:34:48;17.40;99.90
23629;DHT22;11991;57.150;-2.134;2023-07-09T00:37:16;17.40;99.90
23629;DHT22;11991;57.150;-2.134;2023-07-09T00:39:44;17.40;99.90
23629;DHT22;11991;57.150;-2.134;2023-07-09T00:42:13;17.30;99.90
23629;DHT22;11991;57.150;-2.134;2023-07-09T00:44:51;17.30;99.90
23629;DHT22;11991;57.150;-2.134;2023-07-09T00:47:26;17.30;99.90
23629;DHT22;11991;57.150;-2.134;2023-07-09T00:50:37;17.30;99.90
23629;DHT22;11991;57.150;-2.134;2023-07-09T00:53:17;17.20;99.90
23629;DHT22;11991;57.150;-2.134;2023-07-09T00:55:50;17.20;99.90
23629;DHT22;11991;57.150;-2.134;2023-07-09T00:58:17;17.20;99.90
23629;DHT22;11991;57.150;-2.134;2023-07-09T01:00:55;17.20;99.90
23629;DHT22;11991;57.150;-2.134;2023-07-09T01:03:29;17.20;99.90
23629;DHT22;11991;57.150;-2.134;2023-07-09T01:05:59;17.30;99.90
23629;DHT22;11991;57.150;-2.134;2023-07-09T01:08:30;17.20;99.90
23629;DHT22;11991;57.150;-2.134;2023-07-09T01:10:58;17.20;99.90
23629;DHT22;11991;57.150;-2.134;2023-07-09T01:13:29;17.20;99.90
23629;DHT22;11991;57.150;-2.134;2023-07-09T01:15:59;17.20;99.90
23629;DHT22;11991;57.150;-2.134;2023-07-09T01:18:28;17.20;99.90
23629;DHT22;11991;57.150;-2.134;2023-07-09T01:21:07;17.20;99.90
23629;DHT22;11991;57.150;-2.134;2023-07-09T01:23:34;17.20;99.90
23629;DHT22;11991;57.150;-2.134;2023-07-09T01:26:01;17.20;99.90
23629;DHT22;11991;57.150;-2.134;2023-07-09T01:28:30;17.10;99.90
23629;DHT22;11991;57.150;-2.134;2023-07-09T01:30:57;17.00;99.90
23629;DHT22;11991;57.150;-2.134;2023-07-09T01:33:24;16.90;99.90
23629;DHT22;11991;57.150;-2.134;2023-07-09T01:35:52;16.80;99.90
23629;DHT22;11991;57.150;-2.134;2023-07-09T01:38:21;16.80;99.90
23629;DHT22;11991;57.150;-2.134;2023-07-09T01:40:48;16.80;99.90
23629;DHT22;11991;57.150;-2.134;2023-07-09T01:43:15;16.80;99.90
23629;DHT22;11991;57.150;-2.134;2023-07-09T01:45:42;16.80;99.90
23629;DHT22;11991;57.150;-2.134;2023-07-09T01:48:09;16.90;99.90
23629;DHT22;11991;57.150;-2.134;2023-07-09T01:50:43;16.80;99.90
23629;DHT22;11991;57.150;-2.134;2023-07-09T01:53:12;16.80;99.90
23629;DHT22;11991;57.150;-2.134;2023-07-09T01:55:40;16.70;99.90
23629;DHT22;11991;57.150;-2.134;2023-07-09T01:58:07;16.70;99.90
23629;DHT22;11991;57.150;-2.134;2023-07-09T02:00:35;16.70;99.90
23629;DHT22;11991;57.150;-2.134;2023-07-09T02:03:03;16.60;99.90
23629;DHT22;11991;57.150;-2.134;2023-07-09T02:05:32;16.60;99.90
23629;DHT22;11991;57.150;-2.134;2023-07-09T02:07:59;16.60;99.90
23629;DHT22;11991;57.150;-2.134;2023-07-09T02:10:27;16.60;99.90
23629;DHT22;11991;57.150;-2.134;2023-07-09T02:12:54;16.60;99.90
23629;DHT22;11991;57.150;-2.134;2023-07-09T02:15:21;16.60;99.90
23629;DHT22;11991;57.150;-2.134;2023-07-09T02:17:49;16.60;99.90
23629;DHT22;11991;57.150;-2.134;2023-07-09T02:20:18;16.60;99.90
23629;DHT22;11991;57.150;-2.134;2023-07-09T02:22:49;16.60;99.90
23629;DHT22;11991;57.150;-2.134;2023-07-09T02:25:17;16.60;99.90
23629;DHT22;11991;57.150;-2.134;2023-07-09T02:27:44;16.60;99.90
23629;DHT22;11991;57.150;-2.134;2023-07-09T02:30:11;16.70;99.90
23629;DHT22;11991;57.150;-2.134;2023-07-09T02:32:39;16.70;99.90
23629;DHT22;11991;57.150;-2.134;2023-07-09T02:35:08;16.60;99.90
23629;DHT22;11991;57.150;-2.134;2023-07-09T02:37:36;16.60;99.90
23629;DHT22;11991;57.150;-2.134;2023-07-09T02:40:04;16.60;99.90
23629;DHT22;11991;57.150;-2.134;2023-07-09T02:42:31;16.60;99.90
23629;DHT22;11991;57.150;-2.134;2023-07-09T02:44:58;16.60;99.90
23629;DHT22;11991;57.150;-2.134;2023-07-09T02:47:27;16.60;99.90
23629;DHT22;11991;57.150;-2.134;2023-07-09T02:49:57;16.60;99.90
23629;DHT22;11991;57.150;-2.134;2023-07-09T02:52:24;16.60;99.90
23629;DHT22;11991;57.150;-2.134;2023-07-09T02:54:51;16.70;99.90
23629;DHT22;11991;57.150;-2.134;2023-07-09T02:57:18;16.60;99.90
23629;DHT22;11991;57.150;-2.134;2023-07-09T02:59:46;16.60;99.90
23629;DHT22;11991;57.150;-2.134;2023-07-09T03:02:13;16.60;99.90
23629;DHT22;11991;57.150;-2.134;2023-07-09T03:04:40;16.60;99.90
23629;DHT22;11991;57.150;-2.134;2023-07-09T03:07:07;16.60;99.90
23629;DHT22;11991;57.150;-2.134;2023-07-09T03:09:35;16.60;99.90
23629;DHT22;11991;57.150;-2.134;2023-07-09T03:12:02;16.60;99.90
23629;DHT22;11991;57.150;-2.134;2023-07-09T03:14:29;16.60;99.90
23629;DHT22;11991;57.150;-2.134;2023-07-09T03:16:56;16.70;99.90
23629;DHT22;11991;57.150;-2.134;2023-07-09T03:19:24;16.60;99.90
23629;DHT22;11991;57.150;-2.134;2023-07-09T03:21:51;16.60;99.90
23629;DHT22;11991;57.150;-2.134;2023-07-09T03:24:18;16.60;99.90
23629;DHT22;11991;57.150;-2.134;2023-07-09T03:26:47;16.60;99.90
23629;DHT22;11991;57.150;-2.134;2023-07-09T03:29:14;16.60;99.90
23629;DHT22;11991;57.150;-2.134;2023-07-09T03:31:42;16.60;99.90
23629;DHT22;11991;57.150;-2.134;2023-07-09T03:34:10;16.50;99.90
23629;DHT22;11991;57.150;-2.134;2023-07-09T03:36:37;16.50;99.90
23629;DHT22;11991;57.150;-2.134;2023-07-09T03:39:05;16.50;99.90
23629;DHT22;11991;57.150;-2.134;2023-07-09T03:41:32;16.50;99.90
23629;DHT22;11991;57.150;-2.134;2023-07-09T03:44:00;16.40;99.90
23629;DHT22;11991;57.150;-2.134;2023-07-09T03:46:27;16.40;99.90
23629;DHT22;11991;57.150;-2.134;2023-07-09T03:48:55;16.40;99.90
23629;DHT22;11991;57.150;-2.134;2023-07-09T03:51:22;16.40;99.90
23629;DHT22;11991;57.150;-2.134;2023-07-09T03:53:49;16.30;99.90
23629;DHT22;11991;57.150;-2.134;2023-07-09T03:56:18;16.30;99.90
23629;DHT22;11991;57.150;-2.134;2023-07-09T03:58:45;16.30;99.90
23629;DHT22;11991;57.150;-2.134;2023-07-09T04:01:13;16.30;99.90
23629;DHT22;11991;57.150;-2.134;2023-07-09T04:03:40;16.30;99.90
23629;DHT22;11991;57.150;-2.134;2023-07-09T04:06:07;16.30;99.90
23629;DHT22;11991;57.150;-2.134;2023-07-09T04:08:34;16.20;99.90
23629;DHT22;11991;57.150;-2.134;2023-07-09T04:11:02;16.20;99.90
23629;DHT22;11991;57.150;-2.134;2023-07-09T04:13:30;16.10;99.90
23629;DHT22;11991;57.150;-2.134;2023-07-09T04:15:57;16.10;99.90
23629;DHT22;11991;57.150;-2.134;2023-07-09T04:18:24;16.10;99.90
23629;DHT22;11991;57.150;-2.134;2023-07-09T04:20:52;16.10;99.90
23629;DHT22;11991;57.150;-2.134;2023-07-09T04:23:19;16.10;99.90
23629;DHT22;11991;57.150;-2.134;2023-07-09T04:25:47;16.00;99.90
23629;DHT22;11991;57.150;-2.134;2023-07-09T04:28:15;16.00;99.90
23629;DHT22;11991;57.150;-2.134;2023-07-09T04:30:49;16.00;99.90
23629;DHT22;11991;57.150;-2.134;2023-07-09T04:33:18;16.00;99.90
23629;DHT22;11991;57.150;-2.134;2023-07-09T04:35:47;16.00;99.90
23629;DHT22;11991;57.150;-2.134;2023-07-09T04:38:15;16.10;99.90
23629;DHT22;11991;57.150;-2.134;2023-07-09T04:40:43;16.10;99.90
23629;DHT22;11991;57.150;-2.134;2023-07-09T04:43:10;16.20;99.90
23629;DHT22;11991;57.150;-2.134;2023-07-09T04:45:38;16.10;99.90
23629;DHT22;11991;57.150;-2.134;2023-07-09T04:48:06;16.10;99.90
23629;DHT22;11991;57.150;-2.134;2023-07-09T04:50:33;16.10;99.90
23629;DHT22;11991;57.150;-2.134;2023-07-09T04:53:01;16.10;99.90
23629;DHT22;11991;57.150;-2.134;2023-07-09T04:55:28;16.10;99.90
23629;DHT22;11991;57.150;-2.134;2023-07-09T04:57:55;16.00;99.90
23629;DHT22;11991;57.150;-2.134;2023-07-09T05:00:22;16.10;99.90
23629;DHT22;11991;57.150;-2.134;2023-07-09T05:02:49;16.10;99.90
23629;DHT22;11991;57.150;-2.134;2023-07-09T05:05:17;16.00;99.90
23629;DHT22;11991;57.150;-2.134;2023-07-09T05:07:44;16.00;99.90
23629;DHT22;11991;57.150;-2.134;2023-07-09T05:10:11;16.00;99.90
23629;DHT22;11991;57.150;-2.134;2023-07-09T05:12:51;16.00;99.90
23629;DHT22;11991;57.150;-2.134;2023-07-09T05:15:21;16.00;99.90
23629;DHT22;11991;57.150;-2.134;2023-07-09T05:17:48;16.00;99.90
23629;DHT22;11991;57.150;-2.134;2023-07-09T05:20:16;16.10;99.90
23629;DHT22;11991;57.150;-2.134;2023-07-09T05:22:43;16.10;99.90
23629;DHT22;11991;57.150;-2.134;2023-07-09T05:25:10;16.10;99.90
23629;DHT22;11991;57.150;-2.134;2023-07-09T05:27:38;16.10;99.90
23629;DHT22;11991;57.150;-2.134;2023-07-09T05:30:06;16.10;99.90
23629;DHT22;11991;57.150;-2.134;2023-07-09T05:32:33;16.10;99.90
23629;DHT22;11991;57.150;-2.134;2023-07-09T05:35:00;16.10;99.90
23629;DHT22;11991;57.150;-2.134;2023-07-09T05:37:28;16.20;99.90
23629;DHT22;11991;57.150;-2.134;2023-07-09T05:39:55;16.20;99.90
23629;DHT22;11991;57.150;-2.134;2023-07-09T05:42:22;16.20;99.90
23629;DHT22;11991;57.150;-2.134;2023-07-09T05:44:51;16.20;99.90
23629;DHT22;11991;57.150;-2.134;2023-07-09T05:47:18;16.20;99.90
23629;DHT22;11991;57.150;-2.134;2023-07-09T05:49:45;16.20;99.90
23629;DHT22;11991;57.150;-2.134;2023-07-09T05:52:21;16.20;99.90
23629;DHT22;11991;57.150;-2.134;2023-07-09T05:54:50;16.20;99.90
23629;DHT22;11991;57.150;-2.134;2023-07-09T05:57:17;16.20;99.90
23629;DHT22;11991;57.150;-2.134;2023-07-09T05:59:44;16.20;99.90
23629;DHT22;11991;57.150;-2.134;2023-07-09T06:02:13;16.30;99.90
23629;DHT22;11991;57.150;-2.134;2023-07-09T06:04:41;16.30;99.90
23629;DHT22;11991;57.150;-2.134;2023-07-09T06:07:09;16.30;99.90
23629;DHT22;11991;57.150;-2.134;2023-07-09T06:09:36;16.30;99.90
23629;DHT22;11991;57.150;-2.134;2023-07-09T06:12:04;16.30;99.90
23629;DHT22;11991;57.150;-2.134;2023-07-09T06:14:32;16.30;99.90
23629;DHT22;11991;57.150;-2.134;2023-07-09T06:17:00;16.30;99.90
23629;DHT22;11991;57.150;-2.134;2023-07-09T06:19:28;16.30;99.90
23629;DHT22;11991;57.150;-2.134;2023-07-09T06:21:55;16.30;99.90
23629;DHT22;11991;57.150;-2.134;2023-07-09T06:24:23;16.30;99.90
23629;DHT22;11991;57.150;-2.134;2023-07-09T06:26:50;16.30;99.90
23629;DHT22;11991;57.150;-2.134;2023-07-09T06:29:17;16.30;99.90
23629;DHT22;11991;57.150;-2.134;2023-07-09T06:31:44;16.30;99.90
23629;DHT22;11991;57.150;-2.134;2023-07-09T06:34:11;16.30;99.90
23629;DHT22;11991;57.150;-2.134;2023-07-09T06:36:39;16.40;99.90
23629;DHT22;11991;57.150;-2.134;2023-07-09T06:39:09;16.40;99.90
23629;DHT22;11991;57.150;-2.134;2023-07-09T06:41:36;16.40;99.90
23629;DHT22;11991;57.150;-2.134;2023-07-09T06:44:09;16.50;99.90
23629;DHT22;11991;57.150;-2.134;2023-07-09T06:46:37;16.50;99.90
23629;DHT22;11991;57.150;-2.134;2023-07-09T06:49:04;16.50;99.90
23629;DHT22;11991;57.150;-2.134;2023-07-09T06:51:33;16.50;99.90
23629;DHT22;11991;57.150;-2.134;2023-07-09T06:54:00;16.50;99.90
23629;DHT22;11991;57.150;-2.134;2023-07-09T06:56:28;16.50;99.90
23629;DHT22;11991;57.150;-2.134;2023-07-09T06:58:55;16.50;99.90
23629;DHT22;11991;57.150;-2.134;2023-07-09T07:01:23;16.50;99.90
23629;DHT22;11991;57.150;-2.134;2023-07-09T07:03:50;16.50;99.90
23629;DHT22;11991;57.150;-2.134;2023-07-09T07:06:17;16.50;99.90
23629;DHT22;11991;57.150;-2.134;2023-07-09T07:08:44;16.50;99.90
23629;DHT22;11991;57.150;-2.134;2023-07-09T07:11:11;16.50;99.90
23629;DHT22;11991;57.150;-2.134;2023-07-09T07:13:40;16.50;99.90
23629;DHT22;11991;57.150;-2.134;2023-07-09T07:16:10;16.50;99.90
23629;DHT22;11991;57.150;-2.134;2023-07-09T07:18:37;16.50;99.90
23629;DHT22;11991;57.150;-2.134;2023-07-09T07:21:05;16.50;99.90
23629;DHT22;11991;57.150;-2.134;2023-07-09T07:23:32;16.50;99.90
23629;DHT22;11991;57.150;-2.134;2023-07-09T07:26:00;16.50;99.90
23629;DHT22;11991;57.150;-2.134;2023-07-09T07:28:28;16.50;99.90
23629;DHT22;11991;57.150;-2.134;2023-07-09T07:31:06;16.60;99.90
23629;DHT22;11991;57.150;-2.134;2023-07-09T07:33:39;16.60;99.90
23629;DHT22;11991;57.150;-2.134;2023-07-09T07:36:07;16.60;99.90
23629;DHT22;11991;57.150;-2.134;2023-07-09T07:38:37;16.60;99.90
23629;DHT22;11991;57.150;-2.134;2023-07-09T07:41:04;16.60;99.90
23629;DHT22;11991;57.150;-2.134;2023-07-09T07:43:32;16.60;99.90
23629;DHT22;11991;57.150;-2.134;2023-07-09T07:45:59;16.70;99.90
23629;DHT22;11991;57.150;-2.134;2023-07-09T07:48:26;16.70;99.90
23629;DHT22;11991;57.150;-2.134;2023-07-09T07:51:01;16.70;99.90
23629;DHT22;11991;57.150;-2.134;2023-07-09T07:53:31;16.70;99.90
23629;DHT22;11991;57.150;-2.134;2023-07-09T07:55:58;16.80;99.90
23629;DHT22;11991;57.150;-2.134;2023-07-09T07:58:25;16.80;99.90
23629;DHT22;11991;57.150;-2.134;2023-07-09T08:00:56;16.90;99.90
23629;DHT22;11991;57.150;-2.134;2023-07-09T08:03:24;16.90;99.90
23629;DHT22;11991;57.150;-2.134;2023-07-09T08:05:51;16.90;99.90
23629;DHT22;11991;57.150;-2.134;2023-07-09T08:08:19;17.00;99.90
23629;DHT22;11991;57.150;-2.134;2023-07-09T08:10:46;17.00;99.90
23629;DHT22;11991;57.150;-2.134;2023-07-09T08:13:13;17.00;99.90
23629;DHT22;11991;57.150;-2.134;2023-07-09T08:15:41;17.00;99.90
23629;DHT22;11991;57.150;-2.134;2023-07-09T08:18:09;17.00;99.90
23629;DHT22;11991;57.150;-2.134;2023-07-09T08:20:36;17.00;99.90
23629;DHT22;11991;57.150;-2.134;2023-07-09T08:23:03;17.00;99.90
23629;DHT22;11991;57.150;-2.134;2023-07-09T08:25:31;17.00;99.90
23629;DHT22;11991;57.150;-2.134;2023-07-09T08:27:59;17.00;99.90
23629;DHT22;11991;57.150;-2.134;2023-07-09T08:30:26;17.00;99.90
23629;DHT22;11991;57.150;-2.134;2023-07-09T08:32:53;17.10;99.90
23629;DHT22;11991;57.150;-2.134;2023-07-09T08:35:21;17.10;99.90
23629;DHT22;11991;57.150;-2.134;2023-07-09T08:37:51;17.10;99.90
23629;DHT22;11991;57.150;-2.134;2023-07-09T08:40:19;17.10;99.90
23629;DHT22;11991;57.150;-2.134;2023-07-09T08:42:49;17.10;99.90
23629;DHT22;11991;57.150;-2.134;2023-07-09T08:45:54;17.10;99.90
23629;DHT22;11991;57.150;-2.134;2023-07-09T08:50:59;17.10;99.90
23629;DHT22;11991;57.150;-2.134;2023-07-09T08:53:42;17.10;99.90
23629;DHT22;11991;57.150;-2.134;2023-07-09T08:56:10;17.10;99.90
23629;DHT22;11991;57.150;-2.134;2023-07-09T08:58:38;17.10;99.90
23629;DHT22;11991;57.150;-2.134;2023-07-09T09:01:18;17.10;99.90
23629;DHT22;11991;57.150;-2.134;2023-07-09T09:03:50;17.10;99.90
23629;DHT22;11991;57.150;-2.134;2023-07-09T09:06:25;17.00;99.90
23629;DHT22;11991;57.150;-2.134;2023-07-09T09:14:30;17.10;99.90
23629;DHT22;11991;57.150;-2.134;2023-07-09T09:16:59;17.10;99.90
23629;DHT22;11991;57.150;-2.134;2023-07-09T09:19:37;17.10;99.90
23629;DHT22;11991;57.150;-2.134;2023-07-09T09:22:12;17.20;99.90
23629;DHT22;11991;57.150;-2.134;2023-07-09T09:27:21;17.20;99.90
23629;DHT22;11991;57.150;-2.134;2023-07-09T09:29:48;17.20;99.90
23629;DHT22;11991;57.150;-2.134;2023-07-09T09:32:23;17.30;99.90
23629;DHT22;11991;57.150;-2.134;2023-07-09T09:34:51;17.30;99.90
23629;DHT22;11991;57.150;-2.134;2023-07-09T09:37:30;17.30;99.90
23629;DHT22;11991;57.150;-2.134;2023-07-09T09:40:01;17.40;99.90
23629;DHT22;11991;57.150;-2.134;2023-07-09T09:42:43;17.40;99.90
23629;DHT22;11991;57.150;-2.134;2023-07-09T09:45:16;17.50;99.90
23629;DHT22;11991;57.150;-2.134;2023-07-09T09:47:45;17.60;99.90
23629;DHT22;11991;57.150;-2.134;2023-07-09T09:50:21;17.60;99.90
23629;DHT22;11991;57.150;-2.134;2023-07-09T09:52:49;17.80;99.90
23629;DHT22;11991;57.150;-2.134;2023-07-09T09:55:19;17.80;99.90
23629;DHT22;11991;57.150;-2.134;2023-07-09T09:57:48;18.00;99.90
23629;DHT22;11991;57.150;-2.134;2023-07-09T10:00:17;18.10;99.90
23629;DHT22;11991;57.150;-2.134;2023-07-09T10:02:45;18.20;99.90
23629;DHT22;11991;57.150;-2.134;2023-07-09T10:05:16;18.30;99.90
23629;DHT22;11991;57.150;-2.134;2023-07-09T10:08:01;18.50;99.90
23629;DHT22;11991;57.150;-2.134;2023-07-09T10:10:33;18.60;99.90
23629;DHT22;11991;57.150;-2.134;2023-07-09T10:13:14;18.60;99.90
23629;DHT22;11991;57.150;-2.134;2023-07-09T10:16:03;18.70;99.90
23629;DHT22;11991;57.150;-2.134;2023-07-09T10:22:00;18.90;99.90
23629;DHT22;11991;57.150;-2.134;2023-07-09T10:30:13;19.10;99.90
23629;DHT22;11991;57.150;-2.134;2023-07-09T10:33:12;19.10;99.90
23629;DHT22;11991;57.150;-2.134;2023-07-09T10:36:09;19.20;99.90
23629;DHT22;11991;57.150;-2.134;2023-07-09T10:41:38;19.40;99.90
23629;DHT22;11991;57.150;-2.134;2023-07-09T10:47:25;19.50;99.90
23629;DHT22;11991;57.150;-2.134;2023-07-09T10:49:57;19.50;99.90
23629;DHT22;11991;57.150;-2.134;2023-07-09T10:52:29;19.60;99.90
23629;DHT22;11991;57.150;-2.134;2023-07-09T10:55:05;19.70;99.90
23629;DHT22;11991;57.150;-2.134;2023-07-09T10:58:09;19.80;99.90
23629;DHT22;11991;57.150;-2.134;2023-07-09T11:00:43;19.80;99.90
23629;DHT22;11991;57.150;-2.134;2023-07-09T11:03:18;19.90;99.90
23629;DHT22;11991;57.150;-2.134;2023-07-09T11:05:46;20.00;99.90
23629;DHT22;11991;57.150;-2.134;2023-07-09T11:08:25;20.00;99.90
23629;DHT22;11991;57.150;-2.134;2023-07-09T11:11:00;20.10;99.90
23629;DHT22;11991;57.150;-2.134;2023-07-09T11:13:46;20.10;99.90
23629;DHT22;11991;57.150;-2.134;2023-07-09T11:16:35;20.00;99.90
23629;DHT22;11991;57.150;-2.134;2023-07-09T11:19:05;20.10;99.90
23629;DHT22;11991;57.150;-2.134;2023-07-09T11:21:44;20.20;99.90
23629;DHT22;11991;57.150;-2.134;2023-07-09T11:24:32;20.40;99.90
23629;DHT22;11991;57.150;-2.134;2023-07-09T11:26:59;20.50;99.90
23629;DHT22;11991;57.150;-2.134;2023-07-09T11:29:28;20.50;99.90
23629;DHT22;11991;57.150;-2.134;2023-07-09T11:32:08;20.50;99.90
23629;DHT22;11991;57.150;-2.134;2023-07-09T11:34:45;20.50;99.90
23629;DHT22;11991;57.150;-2.134;2023-07-09T11:37:14;20.40;99.90
23629;DHT22;11991;57.150;-2.134;2023-07-09T11:39:48;20.30;99.90
23629;DHT22;11991;57.150;-2.134;2023-07-09T11:42:33;20.20;99.90
23629;DHT22;11991;57.150;-2.134;2023-07-09T11:45:13;20.10;99.90
23629;DHT22;11991;57.150;-2.134;2023-07-09T11:47:49;20.10;99.90
23629;DHT22;11991;57.150;-2.134;2023-07-09T11:50:27;20.10;99.90
23629;DHT22;11991;57.150;-2.134;2023-07-09T11:55:44;19.90;99.90
23629;DHT22;11991;57.150;-2.134;2023-07-09T11:58:18;19.80;99.90
23629;DHT22;11991;57.150;-2.134;2023-07-09T12:00:54;19.70;99.90
23629;DHT22;11991;57.150;-2.134;2023-07-09T12:03:35;19.70;99.90
23629;DHT22;11991;57.150;-2.134;2023-07-09T12:08:45;19.80;99.90
23629;DHT22;11991;57.150;-2.134;2023-07-09T12:11:33;19.90;99.90
23629;DHT22;11991;57.150;-2.134;2023-07-09T12:14:08;19.90;99.90
23629;DHT22;11991;57.150;-2.134;2023-07-09T12:16:39;20.00;99.90
23629;DHT22;11991;57.150;-2.134;2023-07-09T12:19:08;20.10;99.90
23629;DHT22;11991;57.150;-2.134;2023-07-09T12:21:39;20.30;99.90
23629;DHT22;11991;57.150;-2.134;2023-07-09T12:24:19;20.50;99.90
23629;DHT22;11991;57.150;-2.134;2023-07-09T12:26:52;20.60;99.90
23629;DHT22;11991;57.150;-2.134;2023-07-09T12:29:19;20.70;99.90
23629;DHT22;11991;57.150;-2.134;2023-07-09T12:31:46;20.80;99.90
23629;DHT22;11991;57.150;-2.134;2023-07-09T12:34:14;20.90;99.90
23629;DHT22;11991;57.150;-2.134;2023-07-09T12:36:46;21.00;99.90
23629;DHT22;11991;57.150;-2.134;2023-07-09T12:39:16;21.00;99.90
23629;DHT22;11991;57.150;-2.134;2023-07-09T12:41:45;21.00;99.90
23629;DHT22;11991;57.150;-2.134;2023-07-09T12:44:21;21.10;99.90
23629;DHT22;11991;57.150;-2.134;2023-07-09T12:46:50;21.10;99.90
23629;DHT22;11991;57.150;-2.134;2023-07-09T12:49:25;21.20;99.90
23629;DHT22;11991;57.150;-2.134;2023-07-09T12:52:01;21.40;99.90
23629;DHT22;11991;57.150;-2.134;2023-07-09T12:54:29;21.50;99.90
23629;DHT22;11991;57.150;-2.134;2023-07-09T12:56:59;21.60;99.90
23629;DHT22;11991;57.150;-2.134;2023-07-09T12:59:35;21.70;99.90
23629;DHT22;11991;57.150;-2.134;2023-07-09T13:02:19;21.80;99.90
23629;DHT22;11991;57.150;-2.134;2023-07-09T13:04:48;21.90;99.90
23629;DHT22;11991;57.150;-2.134;2023-07-09T13:09:50;22.00;99.90
23629;DHT22;11991;57.150;-2.134;2023-07-09T13:12:18;22.00;99.90
23629;DHT22;11991;57.150;-2.134;2023-07-09T13:14:53;22.00;99.90
23629;DHT22;11991;57.150;-2.134;2023-07-09T13:17:27;22.00;99.90
23629;DHT22;11991;57.150;-2.134;2023-07-09T13:19:54;22.10;99.90
23629;DHT22;11991;57.150;-2.134;2023-07-09T13:22:23;22.10;99.90
23629;DHT22;11991;57.150;-2.134;2023-07-09T13:24:51;22.10;99.90
23629;DHT22;11991;57.150;-2.134;2023-07-09T13:27:19;22.10;99.90
23629;DHT22;11991;57.150;-2.134;2023-07-09T13:29:46;22.00;99.90
23629;DHT22;11991;57.150;-2.134;2023-07-09T13:32:14;22.00;99.90
23629;DHT22;11991;57.150;-2.134;2023-07-09T13:34:43;21.90;99.90
23629;DHT22;11991;57.150;-2.134;2023-07-09T13:37:15;21.80;99.90
23629;DHT22;11991;57.150;-2.134;2023-07-09T13:39:43;21.70;99.90
23629;DHT22;11991;57.150;-2.134;2023-07-09T13:42:14;21.60;99.90
23629;DHT22;11991;57.150;-2.134;2023-07-09T13:44:45;21.40;99.90
23629;DHT22;11991;57.150;-2.134;2023-07-09T13:47:17;21.30;99.90
23629;DHT22;11991;57.150;-2.134;2023-07-09T13:49:46;21.20;99.90
23629;DHT22;11991;57.150;-2.134;2023-07-09T13:52:16;21.10;99.90
23629;DHT22;11991;57.150;-2.134;2023-07-09T13:54:45;21.00;99.90
23629;DHT22;11991;57.150;-2.134;2023-07-09T13:57:17;20.90;99.90
23629;DHT22;11991;57.150;-2.134;2023-07-09T13:59:45;20.90;99.90
23629;DHT22;11991;57.150;-2.134;2023-07-09T14:02:21;20.80;99.90
23629;DHT22;11991;57.150;-2.134;2023-07-09T14:04:51;20.80;99.90
23629;DHT22;11991;57.150;-2.134;2023-07-09T14:09:52;20.60;99.90
23629;DHT22;11991;57.150;-2.134;2023-07-09T14:12:19;20.60;99.90
23629;DHT22;11991;57.150;-2.134;2023-07-09T14:14:47;20.50;99.90
23629;DHT22;11991;57.150;-2.134;2023-07-09T14:17:16;20.60;99.90
23629;DHT22;11991;57.150;-2.134;2023-07-09T14:19:43;20.60;99.90
23629;DHT22;11991;57.150;-2.134;2023-07-09T14:22:36;20.60;99.90
23629;DHT22;11991;57.150;-2.134;2023-07-09T14:25:05;20.60;99.90
23629;DHT22;11991;57.150;-2.134;2023-07-09T14:27:32;20.60;99.90
23629;DHT22;11991;57.150;-2.134;2023-07-09T14:29:59;20.60;99.90
23629;DHT22;11991;57.150;-2.134;2023-07-09T14:32:34;20.70;99.90
23629;DHT22;11991;57.150;-2.134;2023-07-09T14:35:14;20.70;99.90
23629;DHT22;11991;57.150;-2.134;2023-07-09T14:37:42;20.70;99.90
23629;DHT22;11991;57.150;-2.134;2023-07-09T14:40:10;20.80;99.90
23629;DHT22;11991;57.150;-2.134;2023-07-09T14:42:39;20.90;99.90
23629;DHT22;11991;57.150;-2.134;2023-07-09T14:45:19;21.00;99.90
23629;DHT22;11991;57.150;-2.134;2023-07-09T14:47:48;21.10;99.90
23629;DHT22;11991;57.150;-2.134;2023-07-09T14:50:16;21.20;99.90
23629;DHT22;11991;57.150;-2.134;2023-07-09T14:52:45;21.20;99.90
23629;DHT22;11991;57.150;-2.134;2023-07-09T14:55:23;21.30;99.90
23629;DHT22;11991;57.150;-2.134;2023-07-09T14:57:53;21.30;99.90
23629;DHT22;11991;57.150;-2.134;2023-07-09T15:00:21;21.40;99.90
23629;DHT22;11991;57.150;-2.134;2023-07-09T15:02:50;21.50;99.90
23629;DHT22;11991;57.150;-2.134;2023-07-09T15:05:21;21.60;99.90
23629;DHT22;11991;57.150;-2.134;2023-07-09T15:07:48;21.80;99.90
23629;DHT22;11991;57.150;-2.134;2023-07-09T15:10:20;21.90;99.90
23629;DHT22;11991;57.150;-2.134;2023-07-09T15:12:49;22.10;99.90
23629;DHT22;11991;57.150;-2.134;2023-07-09T15:15:24;22.30;99.90
23629;DHT22;11991;57.150;-2.134;2023-07-09T15:17:53;22.40;99.90
23629;DHT22;11991;57.150;-2.134;2023-07-09T15:20:22;22.60;99.90
23629;DHT22;11991;57.150;-2.134;2023-07-09T15:22:51;22.70;99.90
23629;DHT22;11991;57.150;-2.134;2023-07-09T15:25:24;22.90;99.90
23629;DHT22;11991;57.150;-2.134;2023-07-09T15:27:51;23.10;99.90
23629;DHT22;11991;57.150;-2.134;2023-07-09T15:32:49;23.30;99.90
23629;DHT22;11991;57.150;-2.134;2023-07-09T15:35:18;23.40;99.90
23629;DHT22;11991;57.150;-2.134;2023-07-09T15:37:46;23.50;99.90
23629;DHT22;11991;57.150;-2.134;2023-07-09T15:40:17;23.50;99.90
23629;DHT22;11991;57.150;-2.134;2023-07-09T15:42:47;23.60;99.90
23629;DHT22;11991;57.150;-2.134;2023-07-09T15:45:16;23.60;99.90
23629;DHT22;11991;57.150;-2.134;2023-07-09T15:47:47;23.60;99.90
23629;DHT22;11991;57.150;-2.134;2023-07-09T15:50:26;23.60;99.90
23629;DHT22;11991;57.150;-2.134;2023-07-09T15:52:54;23.60;99.90
23629;DHT22;11991;57.150;-2.134;2023-07-09T15:55:23;23.60;99.90
23629;DHT22;11991;57.150;-2.134;2023-07-09T15:57:53;23.60;99.90
23629;DHT22;11991;57.150;-2.134;2023-07-09T16:00:26;23.60;99.90
23629;DHT22;11991;57.150;-2.134;2023-07-09T16:02:54;23.70;99.90
23629;DHT22;11991;57.150;-2.134;2023-07-09T16:05:41;23.70;99.90
23629;DHT22;11991;57.150;-2.134;2023-07-09T16:08:11;23.80;99.90
23629;DHT22;11991;57.150;-2.134;2023-07-09T16:10:38;23.80;99.90
23629;DHT22;11991;57.150;-2.134;2023-07-09T16:13:23;23.90;99.90
23629;DHT22;11991;57.150;-2.134;2023-07-09T16:15:51;23.90;99.90